sensor_id;sensor_type;location;lat;lon;timestamp;temperature;humidity
79055;DHT22;68452;47.186;-1.528;2023-05-27T00:00:21;21.60;48.60
79055;DHT22;68452;47.186;-1.528;2023-05-27T00:02:47;21.80;48.20
79055;DHT22;68452;47.186;-1.528;2023-05-27T00:05:13;21.70;48.30
79055;DHT22;68452;47.186;-1.528;2023-05-27T00:07:39;21.70;48.40
79055;DHT22;68452;47.186;-1.528;2023-05-27T00:10:05;21.70;48.30
79055;DHT22;68452;47.186;-1.528;2023-05-27T00:12:31;21.50;48.60
79055;DHT22;68452;47.186;-1.528;2023-05-27T00:14:57;21.50;48.60
79055;DHT22;68452;47.186;-1.528;2023-05-27T00:17:23;21.50;48.30
79055;DHT22;68452;47.186;-1.528;2023-05-27T00:19:50;21.60;48.10
79055;DHT22;68452;47.186;-1.528;2023-05-27T00:22:17;21.50;48.30
79055;DHT22;68452;47.186;-1.528;2023-05-27T00:24:43;21.50;48.20
79055;DHT22;68452;47.186;-1.528;2023-05-27T00:27:09;21.50;48.00
79055;DHT22;68452;47.186;-1.528;2023-05-27T00:29:38;21.60;47.80
79055;DHT22;68452;47.186;-1.528;2023-05-27T00:32:04;21.50;47.80
79055;DHT22;68452;47.186;-1.528;2023-05-27T00:34:30;21.50;47.80
79055;DHT22;68452;47.186;-1.528;2023-05-27T00:36:57;21.40;48.00
79055;DHT22;68452;47.186;-1.528;2023-05-27T00:39:23;21.30;48.20
79055;DHT22;68452;47.186;-1.528;2023-05-27T00:41:49;21.20;48.40
79055;DHT22;68452;47.186;-1.528;2023-05-27T00:44:16;21.20;48.20
79055;DHT22;68452;47.186;-1.528;2023-05-27T00:46:43;21.20;48.20
79055;DHT22;68452;47.186;-1.528;2023-05-27T00:49:10;21.20;47.90
79055;DHT22;68452;47.186;-1.528;2023-05-27T00:51:36;21.20;47.80
79055;DHT22;68452;47.186;-1.528;2023-05-27T00:54:01;21.10;47.90
79055;DHT22;68452;47.186;-1.528;2023-05-27T00:56:27;21.10;47.90
79055;DHT22;68452;47.186;-1.528;2023-05-27T00:58:53;21.10;47.90
79055;DHT22;68452;47.186;-1.528;2023-05-27T01:01:19;21.10;47.80
79055;DHT22;68452;47.186;-1.528;2023-05-27T01:03:45;21.10;47.80
79055;DHT22;68452;47.186;-1.528;2023-05-27T01:06:31;20.90;48.00
79055;DHT22;68452;47.186;-1.528;2023-05-27T01:11:52;20.90;48.10
79055;DHT22;68452;47.186;-1.528;2023-05-27T01:14:23;21.00;47.80
79055;DHT22;68452;47.186;-1.528;2023-05-27T01:16:51;20.90;48.10
79055;DHT22;68452;47.186;-1.528;2023-05-27T01:19:30;20.80;48.10
79055;DHT22;68452;47.186;-1.528;2023-05-27T01:22:00;20.70;48.30
79055;DHT22;68452;47.186;-1.528;2023-05-27T01:24:26;20.80;48.00
79055;DHT22;68452;47.186;-1.528;2023-05-27T01:26:52;20.80;47.90
79055;DHT22;68452;47.186;-1.528;2023-05-27T01:29:19;20.90;47.80
79055;DHT22;68452;47.186;-1.528;2023-05-27T01:32:05;20.80;48.00
79055;DHT22;68452;47.186;-1.528;2023-05-27T01:34:41;20.90;47.80
79055;DHT22;68452;47.186;-1.528;2023-05-27T01:37:13;20.80;47.70
79055;DHT22;68452;47.186;-1.528;2023-05-27T01:39:42;20.70;47.90
79055;DHT22;68452;47.186;-1.528;2023-05-27T01:42:08;20.60;48.00
79055;DHT22;68452;47.186;-1.528;2023-05-27T01:44:35;20.60;48.00
79055;DHT22;68452;47.186;-1.528;2023-05-27T01:47:02;20.60;47.90
79055;DHT22;68452;47.186;-1.528;2023-05-27T01:49:29;20.60;48.00
79055;DHT22;68452;47.186;-1.528;2023-05-27T01:51:54;20.50;48.30
79055;DHT22;68452;47.186;-1.528;2023-05-27T01:54:20;20.60;48.10
79055;DHT22;68452;47.186;-1.528;2023-05-27T01:56:46;20.50;47.90
79055;DHT22;68452;47.186;-1.528;2023-05-27T01:59:12;20.50;48.10
79055;DHT22;68452;47.186;-1.528;2023-05-27T02:01:38;20.40;48.40
79055;DHT22;68452;47.186;-1.528;2023-05-27T02:04:04;20.30;48.30
79055;DHT22;68452;47.186;-1.528;2023-05-27T02:06:30;20.30;48.30
79055;DHT22;68452;47.186;-1.528;2023-05-27T02:08:57;20.30;48.20
79055;DHT22;68452;47.186;-1.528;2023-05-27T02:11:23;20.40;47.90
79055;DHT22;68452;47.186;-1.528;2023-05-27T02:13:50;20.30;47.90
79055;DHT22;68452;47.186;-1.528;2023-05-27T02:16:18;20.20;48.00
79055;DHT22;68452;47.186;-1.528;2023-05-27T02:18:47;20.30;47.90
79055;DHT22;68452;47.186;-1.528;2023-05-27T02:21:14;20.30;47.80
79055;DHT22;68452;47.186;-1.528;2023-05-27T02:23:40;20.30;47.60
79055;DHT22;68452;47.186;-1.528;2023-05-27T02:26:06;20.00;48.20
79055;DHT22;68452;47.186;-1.528;2023-05-27T02:28:32;20.10;47.80
79055;DHT22;68452;47.186;-1.528;2023-05-27T02:30:59;20.10;47.60
79055;DHT22;68452;47.186;-1.528;2023-05-27T02:33:25;20.10;47.60
79055;DHT22;68452;47.186;-1.528;2023-05-27T02:35:51;20.00;47.90
79055;DHT22;68452;47.186;-1.528;2023-05-27T02:38:17;19.90;47.90
79055;DHT22;68452;47.186;-1.528;2023-05-27T02:40:43;19.80;47.90
79055;DHT22;68452;47.186;-1.528;2023-05-27T02:43:08;19.80;47.90
79055;DHT22;68452;47.186;-1.528;2023-05-27T02:45:34;19.80;47.90
79055;DHT22;68452;47.186;-1.528;2023-05-27T02:48:00;19.70;48.20
79055;DHT22;68452;47.186;-1.528;2023-05-27T02:50:29;19.60;48.20
79055;DHT22;68452;47.186;-1.528;2023-05-27T02:52:55;19.60;48.10
79055;DHT22;68452;47.186;-1.528;2023-05-27T02:55:20;19.60;48.00
79055;DHT22;68452;47.186;-1.528;2023-05-27T02:57:46;19.60;48.00
79055;DHT22;68452;47.186;-1.528;2023-05-27T03:00:13;19.50;48.30
79055;DHT22;68452;47.186;-1.528;2023-05-27T03:02:39;19.50;48.20
79055;DHT22;68452;47.186;-1.528;2023-05-27T03:05:05;19.60;48.10
79055;DHT22;68452;47.186;-1.528;2023-05-27T03:07:31;19.60;48.10
79055;DHT22;68452;47.186;-1.528;2023-05-27T03:09:57;19.60;48.00
79055;DHT22;68452;47.186;-1.528;2023-05-27T03:12:23;19.60;47.80
79055;DHT22;68452;47.186;-1.528;2023-05-27T03:14:50;19.60;47.70
79055;DHT22;68452;47.186;-1.528;2023-05-27T03:17:15;19.40;48.10
79055;DHT22;68452;47.186;-1.528;2023-05-27T03:19:41;19.40;48.20
79055;DHT22;68452;47.186;-1.528;2023-05-27T03:22:08;19.40;48.10
79055;DHT22;68452;47.186;-1.528;2023-05-27T03:24:35;19.40;48.10
79055;DHT22;68452;47.186;-1.528;2023-05-27T03:27:01;19.30;48.40
79055;DHT22;68452;47.186;-1.528;2023-05-27T03:29:27;19.20;48.60
79055;DHT22;68452;47.186;-1.528;2023-05-27T03:31:53;19.10;48.80
79055;DHT22;68452;47.186;-1.528;2023-05-27T03:34:19;19.30;48.40
79055;DHT22;68452;47.186;-1.528;2023-05-27T03:36:45;19.30;48.20
79055;DHT22;68452;47.186;-1.528;2023-05-27T03:39:12;19.20;48.40
79055;DHT22;68452;47.186;-1.528;2023-05-27T03:41:38;19.20;48.50
79055;DHT22;68452;47.186;-1.528;2023-05-27T03:44:04;19.20;48.40
79055;DHT22;68452;47.186;-1.528;2023-05-27T03:46:30;19.20;48.60
79055;DHT22;68452;47.186;-1.528;2023-05-27T03:48:56;19.20;48.30
79055;DHT22;68452;47.186;-1.528;2023-05-27T03:51:22;19.20;48.40
79055;DHT22;68452;47.186;-1.528;2023-05-27T03:53:47;19.30;48.20
79055;DHT22;68452;47.186;-1.528;2023-05-27T03:56:13;19.30;48.30
79055;DHT22;68452;47.186;-1.528;2023-05-27T03:58:39;19.30;48.10
79055;DHT22;68452;47.186;-1.528;2023-05-27T04:01:05;19.20;48.20
79055;DHT22;68452;47.186;-1.528;2023-05-27T04:03:31;19.20;48.30
79055;DHT22;68452;47.186;-1.528;2023-05-27T04:05:58;19.00;48.70
79055;DHT22;68452;47.186;-1.528;2023-05-27T04:08:24;18.90;48.80
79055;DHT22;68452;47.186;-1.528;2023-05-27T04:10:55;19.00;48.70
79055;DHT22;68452;47.186;-1.528;2023-05-27T04:13:21;19.00;48.60
79055;DHT22;68452;47.186;-1.528;2023-05-27T04:15:47;18.90;48.90
79055;DHT22;68452;47.186;-1.528;2023-05-27T04:18:14;18.70;49.30
79055;DHT22;68452;47.186;-1.528;2023-05-27T04:20:40;18.70;49.40
79055;DHT22;68452;47.186;-1.528;2023-05-27T04:23:09;18.60;49.80
79055;DHT22;68452;47.186;-1.528;2023-05-27T04:25:35;18.70;49.60
79055;DHT22;68452;47.186;-1.528;2023-05-27T04:28:02;18.80;49.30
79055;DHT22;68452;47.186;-1.528;2023-05-27T04:30:32;18.80;49.10
79055;DHT22;68452;47.186;-1.528;2023-05-27T04:33:04;18.70;49.50
79055;DHT22;68452;47.186;-1.528;2023-05-27T04:35:30;18.50;49.80
79055;DHT22;68452;47.186;-1.528;2023-05-27T04:37:57;18.50;49.90
79055;DHT22;68452;47.186;-1.528;2023-05-27T04:40:24;18.50;49.90
79055;DHT22;68452;47.186;-1.528;2023-05-27T04:42:50;18.50;50.00
79055;DHT22;68452;47.186;-1.528;2023-05-27T04:45:17;18.50;49.80
79055;DHT22;68452;47.186;-1.528;2023-05-27T04:47:44;18.60;49.80
79055;DHT22;68452;47.186;-1.528;2023-05-27T04:50:10;18.60;49.80
79055;DHT22;68452;47.186;-1.528;2023-05-27T04:52:36;18.40;50.20
79055;DHT22;68452;47.186;-1.528;2023-05-27T04:55:08;18.40;50.30
79055;DHT22;68452;47.186;-1.528;2023-05-27T04:57:34;18.60;49.90
79055;DHT22;68452;47.186;-1.528;2023-05-27T05:00:03;18.60;49.90
79055;DHT22;68452;47.186;-1.528;2023-05-27T05:02:35;18.60;49.70
79055;DHT22;68452;47.186;-1.528;2023-05-27T05:05:02;18.60;49.60
79055;DHT22;68452;47.186;-1.528;2023-05-27T05:07:28;18.50;49.80
79055;DHT22;68452;47.186;-1.528;2023-05-27T05:09:54;18.50;49.90
79055;DHT22;68452;47.186;-1.528;2023-05-27T05:12:20;18.50;49.90
79055;DHT22;68452;47.186;-1.528;2023-05-27T05:14:46;18.40;50.00
79055;DHT22;68452;47.186;-1.528;2023-05-27T05:17:12;18.60;50.00
79055;DHT22;68452;47.186;-1.528;2023-05-27T05:19:37;18.70;49.50
79055;DHT22;68452;47.186;-1.528;2023-05-27T05:22:04;18.60;49.60
79055;DHT22;68452;47.186;-1.528;2023-05-27T05:24:30;18.60;49.80
79055;DHT22;68452;47.186;-1.528;2023-05-27T05:26:56;18.50;50.00
79055;DHT22;68452;47.186;-1.528;2023-05-27T05:29:22;18.50;50.00
79055;DHT22;68452;47.186;-1.528;2023-05-27T05:31:48;18.40;50.10
79055;DHT22;68452;47.186;-1.528;2023-05-27T05:34:14;18.50;50.20
79055;DHT22;68452;47.186;-1.528;2023-05-27T05:36:40;18.60;49.60
79055;DHT22;68452;47.186;-1.528;2023-05-27T05:39:06;18.70;49.70
79055;DHT22;68452;47.186;-1.528;2023-05-27T05:41:31;18.80;49.30
79055;DHT22;68452;47.186;-1.528;2023-05-27T05:43:57;18.70;49.50
79055;DHT22;68452;47.186;-1.528;2023-05-27T05:46:23;18.70;49.80
79055;DHT22;68452;47.186;-1.528;2023-05-27T05:48:52;18.70;49.60
79055;DHT22;68452;47.186;-1.528;2023-05-27T05:51:18;18.70;49.70
79055;DHT22;68452;47.186;-1.528;2023-05-27T05:53:43;18.70;49.70
79055;DHT22;68452;47.186;-1.528;2023-05-27T05:56:09;18.80;49.60
79055;DHT22;68452;47.186;-1.528;2023-05-27T05:58:35;18.80;49.70
79055;DHT22;68452;47.186;-1.528;2023-05-27T06:01:01;18.90;49.40
79055;DHT22;68452;47.186;-1.528;2023-05-27T06:03:27;18.80;49.70
79055;DHT22;68452;47.186;-1.528;2023-05-27T06:05:53;18.70;49.70
79055;DHT22;68452;47.186;-1.528;2023-05-27T06:08:19;18.60;50.20
79055;DHT22;68452;47.186;-1.528;2023-05-27T06:10:44;18.70;50.30
79055;DHT22;68452;47.186;-1.528;2023-05-27T06:13:10;18.90;49.70
79055;DHT22;68452;47.186;-1.528;2023-05-27T06:15:37;18.90;49.60
79055;DHT22;68452;47.186;-1.528;2023-05-27T06:18:04;18.90;49.70
79055;DHT22;68452;47.186;-1.528;2023-05-27T06:20:29;18.90;50.00
79055;DHT22;68452;47.186;-1.528;2023-05-27T06:22:55;18.90;49.80
79055;DHT22;68452;47.186;-1.528;2023-05-27T06:25:21;18.90;49.80
79055;DHT22;68452;47.186;-1.528;2023-05-27T06:27:47;19.00;49.70
79055;DHT22;68452;47.186;-1.528;2023-05-27T06:30:13;19.10;49.60
79055;DHT22;68452;47.186;-1.528;2023-05-27T06:32:39;19.00;49.80
79055;DHT22;68452;47.186;-1.528;2023-05-27T06:35:05;19.10;49.70
79055;DHT22;68452;47.186;-1.528;2023-05-27T06:37:31;19.00;49.90
79055;DHT22;68452;47.186;-1.528;2023-05-27T06:39:57;19.00;50.00
79055;DHT22;68452;47.186;-1.528;2023-05-27T06:42:22;19.30;49.60
79055;DHT22;68452;47.186;-1.528;2023-05-27T06:44:48;19.30;49.60
79055;DHT22;68452;47.186;-1.528;2023-05-27T06:47:14;19.30;49.60
79055;DHT22;68452;47.186;-1.528;2023-05-27T06:49:40;19.50;49.30
79055;DHT22;68452;47.186;-1.528;2023-05-27T06:52:06;19.60;49.10
79055;DHT22;68452;47.186;-1.528;2023-05-27T06:54:32;19.50;49.30
79055;DHT22;68452;47.186;-1.528;2023-05-27T06:56:58;19.50;49.50
79055;DHT22;68452;47.186;-1.528;2023-05-27T06:59:24;19.70;49.30
79055;DHT22;68452;47.186;-1.528;2023-05-27T07:01:50;19.80;48.90
79055;DHT22;68452;47.186;-1.528;2023-05-27T07:04:16;19.80;48.60
79055;DHT22;68452;47.186;-1.528;2023-05-27T07:06:43;20.00;48.60
79055;DHT22;68452;47.186;-1.528;2023-05-27T07:09:09;20.10;48.30
79055;DHT22;68452;47.186;-1.528;2023-05-27T07:11:36;20.30;48.10
79055;DHT22;68452;47.186;-1.528;2023-05-27T07:14:02;20.40;48.00
79055;DHT22;68452;47.186;-1.528;2023-05-27T07:16:28;20.60;47.50
79055;DHT22;68452;47.186;-1.528;2023-05-27T07:18:54;20.60;47.70
79055;DHT22;68452;47.186;-1.528;2023-05-27T07:21:20;20.60;47.40
79055;DHT22;68452;47.186;-1.528;2023-05-27T07:23:46;20.40;48.10
79055;DHT22;68452;47.186;-1.528;2023-05-27T07:26:12;20.60;48.00
79055;DHT22;68452;47.186;-1.528;2023-05-27T07:28:38;20.80;47.60
79055;DHT22;68452;47.186;-1.528;2023-05-27T07:31:04;21.00;47.20
79055;DHT22;68452;47.186;-1.528;2023-05-27T07:33:31;21.20;46.80
79055;DHT22;68452;47.186;-1.528;2023-05-27T07:35:57;21.30;46.60
79055;DHT22;68452;47.186;-1.528;2023-05-27T07:38:24;21.30;47.00
79055;DHT22;68452;47.186;-1.528;2023-05-27T07:40:51;21.00;47.30
79055;DHT22;68452;47.186;-1.528;2023-05-27T07:43:18;20.90;48.00
79055;DHT22;68452;47.186;-1.528;2023-05-27T07:45:43;21.00;47.70
79055;DHT22;68452;47.186;-1.528;2023-05-27T07:48:09;21.10;47.80
79055;DHT22;68452;47.186;-1.528;2023-05-27T07:50:35;21.50;47.20
79055;DHT22;68452;47.186;-1.528;2023-05-27T07:53:02;21.20;47.40
79055;DHT22;68452;47.186;-1.528;2023-05-27T07:55:28;21.30;47.60
79055;DHT22;68452;47.186;-1.528;2023-05-27T07:57:54;21.30;47.70
79055;DHT22;68452;47.186;-1.528;2023-05-27T08:00:21;21.50;47.20
79055;DHT22;68452;47.186;-1.528;2023-05-27T08:02:47;21.50;47.60
79055;DHT22;68452;47.186;-1.528;2023-05-27T08:05:12;21.60;47.50
79055;DHT22;68452;47.186;-1.528;2023-05-27T08:07:38;21.50;47.50
79055;DHT22;68452;47.186;-1.528;2023-05-27T08:10:05;21.50;47.70
79055;DHT22;68452;47.186;-1.528;2023-05-27T08:12:31;21.60;47.40
79055;DHT22;68452;47.186;-1.528;2023-05-27T08:14:57;21.70;47.40
79055;DHT22;68452;47.186;-1.528;2023-05-27T08:17:22;21.80;48.30
79055;DHT22;68452;47.186;-1.528;2023-05-27T08:19:48;21.50;49.30
79055;DHT22;68452;47.186;-1.528;2023-05-27T08:22:14;21.30;49.90
79055;DHT22;68452;47.186;-1.528;2023-05-27T08:24:41;21.30;48.70
79055;DHT22;68452;47.186;-1.528;2023-05-27T08:27:15;21.30;48.70
79055;DHT22;68452;47.186;-1.528;2023-05-27T08:29:42;21.20;49.10
79055;DHT22;68452;47.186;-1.528;2023-05-27T08:32:09;21.30;49.00
79055;DHT22;68452;47.186;-1.528;2023-05-27T08:34:36;21.40;48.80
79055;DHT22;68452;47.186;-1.528;2023-05-27T08:37:02;21.50;48.70
79055;DHT22;68452;47.186;-1.528;2023-05-27T08:39:29;21.60;48.90
79055;DHT22;68452;47.186;-1.528;2023-05-27T08:41:56;21.70;48.70
79055;DHT22;68452;47.186;-1.528;2023-05-27T08:44:23;21.80;48.50
79055;DHT22;68452;47.186;-1.528;2023-05-27T08:46:50;21.70;48.30
79055;DHT22;68452;47.186;-1.528;2023-05-27T08:49:17;21.60;48.50
79055;DHT22;68452;47.186;-1.528;2023-05-27T08:51:45;21.70;48.80
79055;DHT22;68452;47.186;-1.528;2023-05-27T08:54:12;21.80;48.90
79055;DHT22;68452;47.186;-1.528;2023-05-27T08:56:39;21.90;48.30
79055;DHT22;68452;47.186;-1.528;2023-05-27T08:59:06;22.00;48.40
79055;DHT22;68452;47.186;-1.528;2023-05-27T09:01:34;22.10;48.50
79055;DHT22;68452;47.186;-1.528;2023-05-27T09:04:01;22.20;48.30
79055;DHT22;68452;47.186;-1.528;2023-05-27T09:06:27;22.30;48.20
79055;DHT22;68452;47.186;-1.528;2023-05-27T09:08:52;22.30;48.20
79055;DHT22;68452;47.186;-1.528;2023-05-27T09:11:27;22.40;48.00
79055;DHT22;68452;47.186;-1.528;2023-05-27T09:13:55;22.40;48.10
79055;DHT22;68452;47.186;-1.528;2023-05-27T09:16:23;22.50;47.80
79055;DHT22;68452;47.186;-1.528;2023-05-27T09:18:49;22.50;48.00
79055;DHT22;68452;47.186;-1.528;2023-05-27T09:21:15;22.50;47.70
79055;DHT22;68452;47.186;-1.528;2023-05-27T09:23:41;22.60;47.60
79055;DHT22;68452;47.186;-1.528;2023-05-27T09:26:11;22.80;47.40
79055;DHT22;68452;47.186;-1.528;2023-05-27T09:28:37;22.90;47.50
79055;DHT22;68452;47.186;-1.528;2023-05-27T09:31:06;23.00;47.40
79055;DHT22;68452;47.186;-1.528;2023-05-27T09:33:34;23.10;46.60
79055;DHT22;68452;47.186;-1.528;2023-05-27T09:36:01;23.20;47.10
79055;DHT22;68452;47.186;-1.528;2023-05-27T09:38:31;23.50;47.00
79055;DHT22;68452;47.186;-1.528;2023-05-27T09:40:58;23.50;46.10
79055;DHT22;68452;47.186;-1.528;2023-05-27T09:43:25;23.70;46.30
79055;DHT22;68452;47.186;-1.528;2023-05-27T09:45:59;23.80;46.40
79055;DHT22;68452;47.186;-1.528;2023-05-27T09:48:26;23.90;45.90
79055;DHT22;68452;47.186;-1.528;2023-05-27T09:50:54;24.00;45.80
79055;DHT22;68452;47.186;-1.528;2023-05-27T09:53:20;24.00;46.30
79055;DHT22;68452;47.186;-1.528;2023-05-27T09:55:50;24.30;45.80
79055;DHT22;68452;47.186;-1.528;2023-05-27T09:58:17;24.30;46.00
79055;DHT22;68452;47.186;-1.528;2023-05-27T10:00:45;24.40;46.10
79055;DHT22;68452;47.186;-1.528;2023-05-27T10:03:14;24.70;45.10
79055;DHT22;68452;47.186;-1.528;2023-05-27T10:05:43;24.90;45.00
79055;DHT22;68452;47.186;-1.528;2023-05-27T10:08:11;25.20;44.30
79055;DHT22;68452;47.186;-1.528;2023-05-27T10:10:37;25.30;43.70
79055;DHT22;68452;47.186;-1.528;2023-05-27T10:13:04;25.50;44.00
79055;DHT22;68452;47.186;-1.528;2023-05-27T10:15:31;25.60;43.10
79055;DHT22;68452;47.186;-1.528;2023-05-27T10:18:03;25.60;42.90
79055;DHT22;68452;47.186;-1.528;2023-05-27T10:20:38;25.60;43.50
79055;DHT22;68452;47.186;-1.528;2023-05-27T10:23:24;25.70;43.20
79055;DHT22;68452;47.186;-1.528;2023-05-27T10:26:05;25.90;43.30
79055;DHT22;68452;47.186;-1.528;2023-05-27T10:28:38;25.80;43.40
79055;DHT22;68452;47.186;-1.528;2023-05-27T10:31:10;26.00;43.60
79055;DHT22;68452;47.186;-1.528;2023-05-27T10:33:47;26.10;43.00
79055;DHT22;68452;47.186;-1.528;2023-05-27T10:36:21;26.30;42.70
79055;DHT22;68452;47.186;-1.528;2023-05-27T10:38:58;26.40;42.90
79055;DHT22;68452;47.186;-1.528;2023-05-27T10:41:24;26.50;42.60
79055;DHT22;68452;47.186;-1.528;2023-05-27T10:43:58;26.40;42.70
79055;DHT22;68452;47.186;-1.528;2023-05-27T10:46:24;26.40;41.90
79055;DHT22;68452;47.186;-1.528;2023-05-27T10:48:50;26.40;42.80
79055;DHT22;68452;47.186;-1.528;2023-05-27T10:51:16;26.50;42.70
79055;DHT22;68452;47.186;-1.528;2023-05-27T10:53:42;26.50;42.10
79055;DHT22;68452;47.186;-1.528;2023-05-27T10:56:08;26.50;42.30
79055;DHT22;68452;47.186;-1.528;2023-05-27T10:58:37;26.60;42.00
79055;DHT22;68452;47.186;-1.528;2023-05-27T11:01:09;26.70;41.90
79055;DHT22;68452;47.186;-1.528;2023-05-27T11:03:42;26.80;41.70
79055;DHT22;68452;47.186;-1.528;2023-05-27T11:06:10;26.90;41.80
79055;DHT22;68452;47.186;-1.528;2023-05-27T11:08:36;27.10;41.00
79055;DHT22;68452;47.186;-1.528;2023-05-27T11:11:07;27.10;41.20
79055;DHT22;68452;47.186;-1.528;2023-05-27T11:13:35;27.10;40.70
79055;DHT22;68452;47.186;-1.528;2023-05-27T11:16:03;27.30;41.20
79055;DHT22;68452;47.186;-1.528;2023-05-27T11:18:44;27.40;41.20
79055;DHT22;68452;47.186;-1.528;2023-05-27T11:21:12;27.40;41.10
79055;DHT22;68452;47.186;-1.528;2023-05-27T11:23:40;27.50;40.60
79055;DHT22;68452;47.186;-1.528;2023-05-27T11:26:16;27.80;40.40
79055;DHT22;68452;47.186;-1.528;2023-05-27T11:28:55;27.90;39.80
79055;DHT22;68452;47.186;-1.528;2023-05-27T11:31:26;27.90;39.70
79055;DHT22;68452;47.186;-1.528;2023-05-27T11:33:52;27.90;38.70
79055;DHT22;68452;47.186;-1.528;2023-05-27T11:36:18;27.80;39.60
79055;DHT22;68452;47.186;-1.528;2023-05-27T11:38:53;28.00;39.30
79055;DHT22;68452;47.186;-1.528;2023-05-27T11:41:21;28.10;38.90
79055;DHT22;68452;47.186;-1.528;2023-05-27T11:43:52;28.30;39.10
79055;DHT22;68452;47.186;-1.528;2023-05-27T11:46:20;28.60;38.60
79055;DHT22;68452;47.186;-1.528;2023-05-27T11:48:47;28.60;38.10
79055;DHT22;68452;47.186;-1.528;2023-05-27T11:51:13;28.50;38.30
79055;DHT22;68452;47.186;-1.528;2023-05-27T11:53:46;28.40;38.30
79055;DHT22;68452;47.186;-1.528;2023-05-27T11:56:12;28.30;38.60
79055;DHT22;68452;47.186;-1.528;2023-05-27T11:58:39;28.20;38.50
79055;DHT22;68452;47.186;-1.528;2023-05-27T12:01:05;28.20;38.60
79055;DHT22;68452;47.186;-1.528;2023-05-27T12:03:33;28.20;38.90
79055;DHT22;68452;47.186;-1.528;2023-05-27T12:05:59;28.20;38.80
79055;DHT22;68452;47.186;-1.528;2023-05-27T12:08:25;28.10;39.40
79055;DHT22;68452;47.186;-1.528;2023-05-27T12:10:51;28.10;39.40
79055;DHT22;68452;47.186;-1.528;2023-05-27T12:13:20;28.10;39.20
79055;DHT22;68452;47.186;-1.528;2023-05-27T12:15:50;28.20;38.90
79055;DHT22;68452;47.186;-1.528;2023-05-27T12:18:16;28.30;39.20
79055;DHT22;68452;47.186;-1.528;2023-05-27T12:20:44;28.30;38.80
79055;DHT22;68452;47.186;-1.528;2023-05-27T12:23:10;28.30;39.10
79055;DHT22;68452;47.186;-1.528;2023-05-27T12:25:36;28.40;38.90
79055;DHT22;68452;47.186;-1.528;2023-05-27T12:28:01;28.40;38.60
79055;DHT22;68452;47.186;-1.528;2023-05-27T12:30:28;28.40;38.70
79055;DHT22;68452;47.186;-1.528;2023-05-27T12:32:53;28.50;38.40
79055;DHT22;68452;47.186;-1.528;2023-05-27T12:35:20;28.50;38.60
79055;DHT22;68452;47.186;-1.528;2023-05-27T12:37:46;28.50;38.60
79055;DHT22;68452;47.186;-1.528;2023-05-27T12:40:12;28.60;38.70
79055;DHT22;68452;47.186;-1.528;2023-05-27T12:42:40;28.70;38.90
79055;DHT22;68452;47.186;-1.528;2023-05-27T12:45:10;28.70;38.30
79055;DHT22;68452;47.186;-1.528;2023-05-27T12:47:37;28.60;37.90
79055;DHT22;68452;47.186;-1.528;2023-05-27T12:50:03;28.70;38.10
79055;DHT22;68452;47.186;-1.528;2023-05-27T12:52:30;28.80;38.00
79055;DHT22;68452;47.186;-1.528;2023-05-27T12:54:56;28.70;38.30
79055;DHT22;68452;47.186;-1.528;2023-05-27T12:57:22;29.00;38.10
79055;DHT22;68452;47.186;-1.528;2023-05-27T12:59:48;29.10;37.90
79055;DHT22;68452;47.186;-1.528;2023-05-27T13:02:14;29.10;37.70
79055;DHT22;68452;47.186;-1.528;2023-05-27T13:04:40;29.10;37.10
79055;DHT22;68452;47.186;-1.528;2023-05-27T13:07:09;28.90;37.40
79055;DHT22;68452;47.186;-1.528;2023-05-27T13:09:35;28.80;37.70
79055;DHT22;68452;47.186;-1.528;2023-05-27T13:12:01;28.90;37.60
79055;DHT22;68452;47.186;-1.528;2023-05-27T13:14:27;28.90;37.50
79055;DHT22;68452;47.186;-1.528;2023-05-27T13:16:53;29.00;37.60
79055;DHT22;68452;47.186;-1.528;2023-05-27T13:19:20;29.00;37.60
79055;DHT22;68452;47.186;-1.528;2023-05-27T13:21:46;29.00;38.30
79055;DHT22;68452;47.186;-1.528;2023-05-27T13:24:12;29.10;37.40
79055;DHT22;68452;47.186;-1.528;2023-05-27T13:26:38;29.10;37.50
79055;DHT22;68452;47.186;-1.528;2023-05-27T13:29:03;29.10;37.20
79055;DHT22;68452;47.186;-1.528;2023-05-27T13:31:29;29.10;37.50
79055;DHT22;68452;47.186;-1.528;2023-05-27T13:33:55;29.10;37.50
79055;DHT22;68452;47.186;-1.528;2023-05-27T13:36:21;29.10;37.80
79055;DHT22;68452;47.186;-1.528;2023-05-27T13:38:47;29.20;37.90
79055;DHT22;68452;47.186;-1.528;2023-05-27T13:41:14;29.20;37.70
79055;DHT22;68452;47.186;-1.528;2023-05-27T13:43:40;29.30;37.70
79055;DHT22;68452;47.186;-1.528;2023-05-27T13:46:05;29.30;37.60
79055;DHT22;68452;47.186;-1.528;2023-05-27T13:48:31;29.50;37.20
79055;DHT22;68452;47.186;-1.528;2023-05-27T13:50:57;29.50;37.30
79055;DHT22;68452;47.186;-1.528;2023-05-27T13:53:24;29.50;37.40
79055;DHT22;68452;47.186;-1.528;2023-05-27T13:55:50;29.60;37.00
79055;DHT22;68452;47.186;-1.528;2023-05-27T13:58:16;29.60;36.90
79055;DHT22;68452;47.186;-1.528;2023-05-27T14:00:42;29.60;37.50
79055;DHT22;68452;47.186;-1.528;2023-05-27T14:03:08;29.60;37.00
79055;DHT22;68452;47.186;-1.528;2023-05-27T14:05:34;29.50;37.30
79055;DHT22;68452;47.186;-1.528;2023-05-27T14:08:02;29.50;37.50
79055;DHT22;68452;47.186;-1.528;2023-05-27T14:10:31;29.50;37.60
79055;DHT22;68452;47.186;-1.528;2023-05-27T14:12:57;29.60;37.30
79055;DHT22;68452;47.186;-1.528;2023-05-27T14:15:23;29.80;36.30
79055;DHT22;68452;47.186;-1.528;2023-05-27T14:17:53;29.80;36.50
79055;DHT22;68452;47.186;-1.528;2023-05-27T14:20:19;29.90;36.90
79055;DHT22;68452;47.186;-1.528;2023-05-27T14:22:45;30.00;36.50
79055;DHT22;68452;47.186;-1.528;2023-05-27T14:25:11;30.20;36.30
79055;DHT22;68452;47.186;-1.528;2023-05-27T14:27:37;30.50;36.00
79055;DHT22;68452;47.186;-1.528;2023-05-27T14:30:05;30.90;35.70
79055;DHT22;68452;47.186;-1.528;2023-05-27T14:32:31;31.30;35.40
79055;DHT22;68452;47.186;-1.528;2023-05-27T14:34:56;31.70;35.00
79055;DHT22;68452;47.186;-1.528;2023-05-27T14:37:22;31.70;34.30
79055;DHT22;68452;47.186;-1.528;2023-05-27T14:39:51;31.50;34.10
79055;DHT22;68452;47.186;-1.528;2023-05-27T14:42:18;31.70;33.80
79055;DHT22;68452;47.186;-1.528;2023-05-27T14:44:43;31.70;33.50
79055;DHT22;68452;47.186;-1.528;2023-05-27T14:47:09;31.80;33.80
79055;DHT22;68452;47.186;-1.528;2023-05-27T14:49:37;32.20;33.80
79055;DHT22;68452;47.186;-1.528;2023-05-27T14:52:03;32.50;33.10
79055;DHT22;68452;47.186;-1.528;2023-05-27T14:54:29;32.40;33.60
79055;DHT22;68452;47.186;-1.528;2023-05-27T14:56:55;32.60;33.30
79055;DHT22;68452;47.186;-1.528;2023-05-27T14:59:21;32.40;33.60
79055;DHT22;68452;47.186;-1.528;2023-05-27T15:01:48;32.40;33.40
79055;DHT22;68452;47.186;-1.528;2023-05-27T15:04:14;32.20;32.80
79055;DHT22;68452;47.186;-1.528;2023-05-27T15:06:40;32.00;34.10
79055;DHT22;68452;47.186;-1.528;2023-05-27T15:09:06;31.80;33.30
79055;DHT22;68452;47.186;-1.528;2023-05-27T15:11:33;31.60;34.00
79055;DHT22;68452;47.186;-1.528;2023-05-27T15:14:01;31.50;34.00
79055;DHT22;68452;47.186;-1.528;2023-05-27T15:16:27;31.40;34.00